createdAt,value
2022-08-16T00:01:26.492Z,21.01
2022-08-16T00:03:57.076Z,20.99
2022-08-16T00:06:25.533Z,20.92
2022-08-16T00:08:53.563Z,20.88
2022-08-16T00:11:22.098Z,20.84
2022-08-16T00:13:53.573Z,20.79
2022-08-16T00:17:05.330Z,20.71
2022-08-16T00:19:24.482Z,20.71
2022-08-16T00:22:01.622Z,20.62
2022-08-16T00:24:32.926Z,20.56
2022-08-16T00:27:04.457Z,20.51
2022-08-16T00:29:32.960Z,20.49
2022-08-16T00:32:06.622Z,20.45
2022-08-16T00:34:43.569Z,20.39
2022-08-16T00:37:24.336Z,20.20
2022-08-16T00:39:57.147Z,20.13
2022-08-16T00:42:32.259Z,20.08
2022-08-16T00:45:58.302Z,20.04
2022-08-16T00:48:44.172Z,20.01
2022-08-16T00:51:17.457Z,20.21
2022-08-16T00:53:49.561Z,20.18
2022-08-16T00:56:58.486Z,20.06
2022-08-16T00:59:16.129Z,19.89
2022-08-16T01:01:45.020Z,19.91
2022-08-16T01:04:28.895Z,19.79
2022-08-16T01:07:05.155Z,20.00
2022-08-16T01:09:38.948Z,19.75
2022-08-16T01:12:26.514Z,19.95
2022-08-16T01:14:59.608Z,19.94
2022-08-16T01:17:29.730Z,19.88
2022-08-16T01:20:23.788Z,19.85
2022-08-16T01:22:56.617Z,19.80
2022-08-16T01:25:44.171Z,19.79
2022-08-16T01:28:19.979Z,19.73
2022-08-16T01:30:56.001Z,19.50
2022-08-16T01:33:25.642Z,19.68
2022-08-16T01:36:12.939Z,19.68
2022-08-16T01:38:56.802Z,19.44
2022-08-16T01:41:31.242Z,19.56
2022-08-16T01:44:03.019Z,19.52
2022-08-16T01:46:47.123Z,19.50
2022-08-16T01:49:24.885Z,19.29
2022-08-16T01:52:28.283Z,19.41
2022-08-16T01:55:25.464Z,19.44
2022-08-16T01:58:04.095Z,19.11
2022-08-16T02:00:32.365Z,19.40
2022-08-16T02:03:02.808Z,19.38
2022-08-16T02:05:31.206Z,19.20
2022-08-16T02:08:04.820Z,19.13
2022-08-16T02:10:36.309Z,19.10
2022-08-16T02:13:07.875Z,19.34
2022-08-16T02:15:42.219Z,19.11
2022-08-16T02:18:13.133Z,19.28
2022-08-16T02:20:53.444Z,19.32
2022-08-16T02:23:23.329Z,19.30
2022-08-16T02:25:54.059Z,19.27
2022-08-16T02:28:25.389Z,19.02
2022-08-16T02:30:56.585Z,19.19
2022-08-16T02:33:43.717Z,19.20
2022-08-16T02:36:47.236Z,19.20
2022-08-16T02:39:14.828Z,19.21
2022-08-16T02:41:53.314Z,19.17
2022-08-16T02:44:23.705Z,19.11
2022-08-16T02:46:55.904Z,19.06
2022-08-16T02:49:58.674Z,19.11
2022-08-16T02:52:17.380Z,19.04
2022-08-16T02:55:01.481Z,19.06
2022-08-16T02:57:31.141Z,19.07
2022-08-16T03:00:01.235Z,19.05
2022-08-16T03:02:56.000Z,18.99
2022-08-16T03:05:25.750Z,18.94
2022-08-16T03:08:00.698Z,18.84
2022-08-16T03:10:33.640Z,18.83
2022-08-16T03:13:12.349Z,18.80
2022-08-16T03:15:42.353Z,18.71
2022-08-16T03:18:18.602Z,18.80
2022-08-16T03:21:01.724Z,18.78
2022-08-16T03:23:35.981Z,18.79
2022-08-16T03:26:04.644Z,18.79
2022-08-16T03:28:32.971Z,18.80
2022-08-16T03:31:01.079Z,18.78
2022-08-16T03:33:29.989Z,18.77
2022-08-16T03:36:30.078Z,18.73
2022-08-16T03:38:54.013Z,18.69
2022-08-16T03:41:29.498Z,18.33
2022-08-16T03:44:40.657Z,18.78
2022-08-16T03:47:03.463Z,18.79
2022-08-16T03:49:37.075Z,18.80
2022-08-16T03:52:08.545Z,18.82
2022-08-16T03:54:38.482Z,18.50
2022-08-16T03:57:22.069Z,18.72
2022-08-16T03:59:51.571Z,18.90
2022-08-16T04:02:22.406Z,18.93
2022-08-16T04:05:00.563Z,18.85
2022-08-16T04:07:33.446Z,18.76
2022-08-16T04:10:35.503Z,19.02
2022-08-16T04:13:00.721Z,19.11
2022-08-16T04:15:33.038Z,19.18
2022-08-16T04:18:20.598Z,19.24
2022-08-16T04:20:51.137Z,19.28
2022-08-16T04:23:23.650Z,19.07
2022-08-16T04:25:55.066Z,19.21
2022-08-16T04:28:51.583Z,19.50
2022-08-16T04:31:14.032Z,19.32
2022-08-16T04:33:51.193Z,19.60
2022-08-16T04:36:21.855Z,19.61
2022-08-16T04:38:50.003Z,19.77
2022-08-16T04:41:18.490Z,19.83
2022-08-16T04:44:02.355Z,19.66
2022-08-16T04:47:01.027Z,19.97
2022-08-16T04:49:38.697Z,19.93
2022-08-16T04:52:33.404Z,20.14
2022-08-16T04:55:15.313Z,20.26
2022-08-16T04:57:53.545Z,20.17
2022-08-16T05:00:34.485Z,20.45
2022-08-16T05:03:12.834Z,20.35
2022-08-16T05:05:59.452Z,20.68
2022-08-16T05:08:34.474Z,20.47
2022-08-16T05:11:25.449Z,20.68
2022-08-16T05:14:07.125Z,20.96
2022-08-16T05:16:38.631Z,20.98
2022-08-16T05:19:11.506Z,20.84
2022-08-16T05:21:43.465Z,21.09
2022-08-16T05:24:12.790Z,21.12
2022-08-16T05:26:43.511Z,21.20
2022-08-16T05:29:20.505Z,21.21
2022-08-16T05:32:33.927Z,21.27
2022-08-16T05:34:56.012Z,21.31
2022-08-16T05:37:24.645Z,21.38
2022-08-16T05:39:55.448Z,21.30
2022-08-16T05:42:35.971Z,21.34
2022-08-16T05:45:07.604Z,21.39
2022-08-16T05:47:43.145Z,21.37
2022-08-16T05:50:19.400Z,21.46
2022-08-16T05:52:49.935Z,21.52
2022-08-16T05:55:19.610Z,21.65
2022-08-16T05:57:52.430Z,21.62
2022-08-16T06:00:22.830Z,21.60
2022-08-16T06:02:54.014Z,21.66
2022-08-16T06:05:43.003Z,21.71
2022-08-16T06:08:32.110Z,21.76
2022-08-16T06:11:02.608Z,21.96
2022-08-16T06:13:42.011Z,21.74
2022-08-16T06:16:17.995Z,21.80
2022-08-16T06:18:49.177Z,21.97
2022-08-16T06:21:23.685Z,22.01
2022-08-16T06:24:02.731Z,22.11
2022-08-16T06:26:57.315Z,22.14
2022-08-16T06:29:29.312Z,22.31
2022-08-16T06:31:58.618Z,22.31
2022-08-16T06:34:53.124Z,22.45
2022-08-16T06:37:16.716Z,22.47
2022-08-16T06:39:50.239Z,22.69
2022-08-16T06:42:57.367Z,22.71
2022-08-16T06:45:51.666Z,22.90
2022-08-16T06:48:32.990Z,23.07
2022-08-16T06:51:06.643Z,23.40
2022-08-16T06:53:36.913Z,23.52
2022-08-16T06:56:13.956Z,23.80
2022-08-16T06:59:09.197Z,23.71
2022-08-16T07:01:53.558Z,23.83
2022-08-16T07:04:32.490Z,24.17
2022-08-16T07:07:09.798Z,24.42
2022-08-16T07:09:40.278Z,24.36
2022-08-16T07:12:10.065Z,24.62
2022-08-16T07:14:44.897Z,24.82
2022-08-16T07:17:19.405Z,25.02
2022-08-16T07:20:03.290Z,24.98
2022-08-16T07:22:53.072Z,24.77
2022-08-16T07:25:40.155Z,25.02
2022-08-16T07:28:20.575Z,25.02
2022-08-16T07:30:54.879Z,25.06
2022-08-16T07:33:52.336Z,25.14
2022-08-16T07:36:27.497Z,25.02
2022-08-16T07:38:57.988Z,24.98
2022-08-16T07:41:29.165Z,25.01
2022-08-16T07:44:01.926Z,24.92
2022-08-16T07:46:39.038Z,24.88
2022-08-16T07:49:34.196Z,24.69
2022-08-16T07:52:20.110Z,24.83
2022-08-16T07:54:53.376Z,24.63
2022-08-16T07:57:24.234Z,24.55
2022-08-16T07:59:57.186Z,24.51
2022-08-16T08:02:27.274Z,24.58
2022-08-16T08:04:57.876Z,24.51
2022-08-16T08:07:29.553Z,24.51
2022-08-16T08:10:06.021Z,24.25
2022-08-16T08:12:40.795Z,24.62
2022-08-16T08:15:14.720Z,24.42
2022-08-16T08:17:55.547Z,24.56
2022-08-16T08:20:45.615Z,24.12
2022-08-16T08:23:29.995Z,24.41
2022-08-16T08:25:59.260Z,24.43
2022-08-16T08:28:32.096Z,24.49
2022-08-16T08:31:07.419Z,24.45
2022-08-16T08:33:43.780Z,24.54
2022-08-16T08:36:22.779Z,24.56
2022-08-16T08:38:55.418Z,24.56
2022-08-16T08:41:28.896Z,24.63
2022-08-16T08:44:00.319Z,24.62
2022-08-16T08:46:28.932Z,24.93
2022-08-16T08:49:08.058Z,25.03
2022-08-16T08:51:41.670Z,24.90
2022-08-16T08:54:18.835Z,25.22
2022-08-16T08:56:53.600Z,25.12
2022-08-16T08:59:42.046Z,25.13
2022-08-16T09:02:19.523Z,25.42
2022-08-16T09:04:54.219Z,25.56
2022-08-16T09:07:27.563Z,25.64
2022-08-16T09:10:06.883Z,25.41
2022-08-16T09:12:48.535Z,25.91
2022-08-16T09:15:23.979Z,26.05
2022-08-16T09:17:55.800Z,26.00
2022-08-16T09:20:29.623Z,25.81
2022-08-16T09:23:01.902Z,26.12
2022-08-16T09:25:40.248Z,26.50
2022-08-16T09:29:13.831Z,26.56
2022-08-16T09:31:30.921Z,26.66
2022-08-16T09:34:03.020Z,26.60
2022-08-16T09:36:32.343Z,26.75
2022-08-16T09:39:03.580Z,26.75
2022-08-16T09:41:33.038Z,26.79
2022-08-16T09:45:09.198Z,26.74
2022-08-16T09:46:57.635Z,26.72
2022-08-16T09:49:37.142Z,26.90
2022-08-16T09:52:10.894Z,26.99
2022-08-16T09:54:44.245Z,26.99
2022-08-16T09:57:13.076Z,27.08
2022-08-16T09:59:42.430Z,27.33
2022-08-16T10:02:26.747Z,27.56
2022-08-16T10:04:59.062Z,27.38
2022-08-16T10:07:44.652Z,27.72
2022-08-16T10:10:19.160Z,27.94
2022-08-16T10:13:12.359Z,27.52
2022-08-16T10:15:57.909Z,27.51
2022-08-16T10:18:56.759Z,27.39
2022-08-16T10:21:19.010Z,27.47
2022-08-16T10:23:54.834Z,27.69
2022-08-16T10:27:18.135Z,27.81
2022-08-16T10:29:19.964Z,28.04
2022-08-16T10:31:53.193Z,28.04
2022-08-16T10:34:31.330Z,28.29
2022-08-16T10:37:02.588Z,28.50
2022-08-16T10:39:40.831Z,28.34
2022-08-16T10:42:13.652Z,28.50
2022-08-16T10:44:46.644Z,28.99
2022-08-16T10:47:24.566Z,28.94
2022-08-16T10:49:53.914Z,29.39
2022-08-16T10:52:24.308Z,29.33
2022-08-16T10:54:59.987Z,30.04
2022-08-16T10:57:41.392Z,29.55
2022-08-16T11:00:21.285Z,30.21
2022-08-16T11:02:57.607Z,30.22
2022-08-16T11:08:35.111Z,30.14
2022-08-16T11:11:11.806Z,30.53
2022-08-16T11:14:11.393Z,30.88
2022-08-16T11:19:28.211Z,30.37
2022-08-16T11:22:39.095Z,30.34
2022-08-16T11:25:11.484Z,30.06
2022-08-16T11:27:35.949Z,29.94
2022-08-16T11:30:09.138Z,30.25
2022-08-16T11:32:41.950Z,30.14
2022-08-16T11:35:17.221Z,30.23
2022-08-16T11:38:46.725Z,30.03
2022-08-16T11:40:52.215Z,30.23
2022-08-16T11:43:35.084Z,30.42
2022-08-16T11:46:44.731Z,30.59
2022-08-16T11:49:03.295Z,30.36
2022-08-16T11:51:31.694Z,30.39
2022-08-16T11:53:59.733Z,30.13
2022-08-16T11:56:29.902Z,29.90
2022-08-16T11:59:08.561Z,30.35
2022-08-16T12:01:44.432Z,30.01
2022-08-16T12:04:26.611Z,29.77
2022-08-16T12:06:55.909Z,29.74
2022-08-16T12:09:29.358Z,30.54
2022-08-16T12:12:02.985Z,31.13
2022-08-16T12:14:35.504Z,31.37
2022-08-16T12:17:08.485Z,30.48
2022-08-16T12:19:38.001Z,30.57
2022-08-16T12:22:18.824Z,31.33
2022-08-16T12:24:52.496Z,32.23
2022-08-16T12:27:24.830Z,32.48
2022-08-16T12:29:54.089Z,32.37
2022-08-16T12:32:37.445Z,32.43
2022-08-16T12:35:13.218Z,32.72
2022-08-16T12:37:42.696Z,32.58
2022-08-16T12:40:24.572Z,33.50
2022-08-16T12:42:58.932Z,33.74
2022-08-16T12:45:35.644Z,33.73
2022-08-16T12:48:35.050Z,34.39
2022-08-16T12:51:13.531Z,34.26
2022-08-16T12:53:54.117Z,34.60
2022-08-16T12:56:32.986Z,34.65
2022-08-16T12:59:06.349Z,34.74
2022-08-16T13:01:34.771Z,34.61
2022-08-16T13:04:20.616Z,34.78
2022-08-16T13:06:52.465Z,34.98
2022-08-16T13:09:26.601Z,34.57
2022-08-16T13:12:05.945Z,33.80
2022-08-16T13:14:41.564Z,33.71
2022-08-16T13:17:19.136Z,33.59
2022-08-16T13:20:09.254Z,33.52
2022-08-16T13:23:00.348Z,33.71
2022-08-16T13:25:35.401Z,33.97
2022-08-16T13:28:04.854Z,33.44
2022-08-16T13:30:41.224Z,33.39
2022-08-16T13:33:18.986Z,33.53
2022-08-16T13:35:56.181Z,32.72
2022-08-16T13:38:36.965Z,32.31
2022-08-16T13:41:12.555Z,32.19
2022-08-16T13:43:42.303Z,31.85
2022-08-16T13:46:10.999Z,31.40
2022-08-16T13:48:44.174Z,31.32
2022-08-16T13:51:17.769Z,30.92
2022-08-16T13:53:54.224Z,30.82
2022-08-16T13:56:37.513Z,30.60
2022-08-16T13:59:20.832Z,30.51
2022-08-16T14:01:56.670Z,30.39
2022-08-16T14:04:35.246Z,29.99
2022-08-16T14:07:09.234Z,29.93
2022-08-16T14:09:38.381Z,29.92
2022-08-16T14:12:26.164Z,29.86
2022-08-16T14:14:57.280Z,29.65
2022-08-16T14:17:27.182Z,29.82
2022-08-16T14:19:59.937Z,29.67
2022-08-16T14:22:42.367Z,29.86
2022-08-16T14:25:20.106Z,29.97
2022-08-16T14:27:52.429Z,30.38
2022-08-16T14:30:23.739Z,30.91
2022-08-16T14:32:54.232Z,31.14
2022-08-16T14:35:48.455Z,31.81
2022-08-16T14:38:24.077Z,31.95
2022-08-16T14:40:55.190Z,32.19
2022-08-16T14:43:25.924Z,32.30
2022-08-16T14:45:58.865Z,32.75
2022-08-16T14:48:27.442Z,32.55
2022-08-16T14:50:56.046Z,32.42
2022-08-16T14:53:26.451Z,32.27
2022-08-16T14:55:55.505Z,32.00
2022-08-16T14:58:34.480Z,32.18
2022-08-16T15:01:09.846Z,32.08
2022-08-16T15:03:38.606Z,31.55
2022-08-16T15:06:14.336Z,31.35
2022-08-16T15:08:43.790Z,30.71
2022-08-16T15:11:17.794Z,30.66
2022-08-16T15:13:45.954Z,30.62
2022-08-16T15:16:15.417Z,30.39
2022-08-16T15:18:46.693Z,30.25
2022-08-16T15:21:15.097Z,30.19
2022-08-16T15:23:43.097Z,29.87
2022-08-16T15:26:18.861Z,29.63
2022-08-16T15:29:00.773Z,29.78
2022-08-16T15:31:31.156Z,29.53
2022-08-16T15:33:59.959Z,29.95
2022-08-16T15:36:29.144Z,30.19
2022-08-16T15:39:07.806Z,30.03
2022-08-16T15:41:48.084Z,30.10
2022-08-16T15:44:23.124Z,30.25
2022-08-16T15:46:58.790Z,30.25
2022-08-16T15:49:34.407Z,30.30
2022-08-16T15:52:10.472Z,30.36
2022-08-16T15:54:52.513Z,30.18
2022-08-16T15:57:27.466Z,30.36
2022-08-16T16:00:04.338Z,30.51
2022-08-16T16:02:44.474Z,30.74
2022-08-16T16:05:14.353Z,30.72
2022-08-16T16:07:56.950Z,30.92
2022-08-16T16:10:32.983Z,31.01
2022-08-16T16:13:04.667Z,30.71
2022-08-16T16:15:43.636Z,30.14
2022-08-16T16:18:13.528Z,30.29
2022-08-16T16:20:49.440Z,30.00
2022-08-16T16:23:26.603Z,29.77
2022-08-16T16:25:58.303Z,29.29
2022-08-16T16:29:06.674Z,29.62
2022-08-16T16:31:21.507Z,29.28
2022-08-16T16:33:55.875Z,29.16
2022-08-16T16:36:29.339Z,28.80
2022-08-16T16:38:58.171Z,28.67
2022-08-16T16:41:28.971Z,28.50
2022-08-16T16:44:01.134Z,28.59
2022-08-16T16:46:42.820Z,28.28
2022-08-16T16:49:14.597Z,28.13
2022-08-16T16:51:47.148Z,27.87
2022-08-16T16:54:22.246Z,27.70
2022-08-16T16:56:58.465Z,27.58
2022-08-16T16:59:28.199Z,27.47
2022-08-16T17:02:13.727Z,27.16
2022-08-16T17:04:48.540Z,27.21
2022-08-16T17:07:17.258Z,26.67
2022-08-16T17:09:47.076Z,26.77
2022-08-16T17:12:24.644Z,26.74
2022-08-16T17:14:55.195Z,26.88
2022-08-16T17:17:24.365Z,26.77
2022-08-16T17:19:52.660Z,26.29
2022-08-16T17:22:23.400Z,26.41
2022-08-16T17:24:53.556Z,26.11
2022-08-16T17:27:32.911Z,26.31
2022-08-16T17:30:16.683Z,26.27
2022-08-16T17:35:55.245Z,25.72
2022-08-16T17:38:36.941Z,25.69
2022-08-16T17:39:27.125Z,26.10
2022-08-16T17:41:08.326Z,25.31
2022-08-16T17:43:44.196Z,25.22
2022-08-16T17:46:51.501Z,25.25
2022-08-16T17:49:06.489Z,25.20
2022-08-16T17:51:34.674Z,25.15
2022-08-16T17:54:03.732Z,25.37
2022-08-16T17:56:32.319Z,25.29
2022-08-16T17:59:02.124Z,24.93
2022-08-16T18:01:30.509Z,24.84
2022-08-16T18:04:06.936Z,24.68
2022-08-16T18:06:39.954Z,24.77
2022-08-16T18:09:10.444Z,24.65
2022-08-16T18:11:43.203Z,24.46
2022-08-16T18:14:15.148Z,24.67
2022-08-16T18:16:45.943Z,24.71
2022-08-16T18:19:15.491Z,24.28
2022-08-16T18:22:02.715Z,24.80
2022-08-16T18:24:30.887Z,24.78
2022-08-16T18:27:03.791Z,24.86
2022-08-16T18:29:50.099Z,24.84
2022-08-16T18:32:24.853Z,24.58
2022-08-16T18:34:55.654Z,24.65
2022-08-16T18:37:25.189Z,24.71
2022-08-16T18:39:53.322Z,24.66
2022-08-16T18:42:21.507Z,24.69
2022-08-16T18:44:49.652Z,24.57
2022-08-16T18:47:17.798Z,24.52
2022-08-16T18:49:45.890Z,24.23
2022-08-16T18:52:24.992Z,24.43
2022-08-16T18:54:58.894Z,24.45
2022-08-16T18:57:36.114Z,24.41
2022-08-16T19:00:08.272Z,24.29
2022-08-16T19:02:57.413Z,24.34
2022-08-16T19:05:30.153Z,24.11
2022-08-16T19:07:58.949Z,23.88
2022-08-16T19:10:27.527Z,22.99
2022-08-16T19:12:56.465Z,22.96
2022-08-16T19:15:29.583Z,22.88
2022-08-16T19:17:58.169Z,22.67
2022-08-16T19:20:28.990Z,22.83
2022-08-16T19:23:05.030Z,22.52
2022-08-16T19:25:48.883Z,22.69
2022-08-16T19:28:51.734Z,22.67
2022-08-16T19:31:27.700Z,22.61
2022-08-16T19:33:57.139Z,22.52
2022-08-16T19:36:33.795Z,22.48
2022-08-16T19:39:14.947Z,22.46
2022-08-16T19:41:53.851Z,22.37
2022-08-16T19:44:23.746Z,22.58
2022-08-16T19:46:52.042Z,22.57
2022-08-16T19:49:20.358Z,22.59
2022-08-16T19:51:52.015Z,22.22
2022-08-16T19:54:20.101Z,22.28
2022-08-16T19:56:50.617Z,22.55
2022-08-16T19:59:20.950Z,22.55
2022-08-16T20:01:52.437Z,22.51
2022-08-16T20:04:23.119Z,22.23
2022-08-16T20:06:56.222Z,22.43
2022-08-16T20:09:25.864Z,22.24
2022-08-16T20:11:55.023Z,22.41
2022-08-16T20:14:26.044Z,22.39
2022-08-16T20:17:02.576Z,22.34
2022-08-16T20:19:40.299Z,21.97
2022-08-16T20:23:02.537Z,22.15
2022-08-16T20:25:28.166Z,21.94
2022-08-16T20:27:58.319Z,21.85
2022-08-16T20:30:27.672Z,21.78
2022-08-16T20:32:56.448Z,22.03
2022-08-16T20:35:28.274Z,21.94
2022-08-16T20:37:56.983Z,21.65
2022-08-16T20:40:34.331Z,21.78
2022-08-16T20:43:13.939Z,21.72
2022-08-16T20:45:47.034Z,21.71
2022-08-16T20:48:16.946Z,21.61
2022-08-16T20:50:45.450Z,21.69
2022-08-16T20:53:13.899Z,21.67
2022-08-16T20:55:44.853Z,21.52
2022-08-16T20:58:13.023Z,21.31
2022-08-16T21:00:41.525Z,21.54
2022-08-16T21:03:12.709Z,21.50
2022-08-16T21:05:41.533Z,21.44
2022-08-16T21:08:50.672Z,21.40
2022-08-16T21:11:02.409Z,21.25
2022-08-16T21:13:31.264Z,21.21
2022-08-16T21:16:01.595Z,20.95
2022-08-16T21:18:29.581Z,21.14
2022-08-16T21:20:57.705Z,21.13
2022-08-16T21:23:26.185Z,21.10
2022-08-16T21:27:06.819Z,21.06
2022-08-16T21:29:51.908Z,20.97
2022-08-16T21:35:47.124Z,21.01
2022-08-16T21:38:28.876Z,21.02
2022-08-16T21:41:00.123Z,21.03
2022-08-16T21:43:32.309Z,20.60
2022-08-16T21:46:06.138Z,20.81
2022-08-16T21:48:36.635Z,20.90
2022-08-16T21:51:14.158Z,20.88
2022-08-16T21:53:43.803Z,20.67
2022-08-16T21:56:16.582Z,20.78
2022-08-16T21:58:47.860Z,20.75
2022-08-16T22:01:23.301Z,20.40
2022-08-16T22:04:03.474Z,20.65
2022-08-16T22:06:42.667Z,20.59
2022-08-16T22:09:13.292Z,20.25
2022-08-16T22:11:42.702Z,20.46
2022-08-16T22:14:10.851Z,20.24
2022-08-16T22:16:41.982Z,20.35
2022-08-16T22:19:11.716Z,20.26
2022-08-16T22:21:39.836Z,20.29
2022-08-16T22:24:08.369Z,20.28
2022-08-16T22:26:42.765Z,20.29
2022-08-16T22:29:14.415Z,20.10
2022-08-16T22:31:44.030Z,20.30
2022-08-16T22:34:13.413Z,20.36
2022-08-16T22:36:42.261Z,20.31
2022-08-16T22:39:13.268Z,20.18
2022-08-16T22:41:45.701Z,20.27
2022-08-16T22:44:14.635Z,20.25
2022-08-16T22:46:43.938Z,19.98
2022-08-16T22:49:12.725Z,20.23
2022-08-16T22:51:41.337Z,20.20
2022-08-16T22:54:47.858Z,20.26
2022-08-16T22:56:58.852Z,20.00
2022-08-16T22:59:28.755Z,20.18
2022-08-16T23:01:57.805Z,20.19
2022-08-16T23:04:26.073Z,20.19
2022-08-16T23:06:54.734Z,20.16
2022-08-16T23:09:23.720Z,20.10
2022-08-16T23:11:52.668Z,20.11
2022-08-16T23:14:20.914Z,20.08
2022-08-16T23:16:48.953Z,20.07
2022-08-16T23:19:17.570Z,19.98
2022-08-16T23:21:48.265Z,19.99
2022-08-16T23:24:20.698Z,19.98
2022-08-16T23:26:49.835Z,19.93
2022-08-16T23:29:24.855Z,19.88
2022-08-16T23:32:08.543Z,19.90
2022-08-16T23:34:38.426Z,19.62
2022-08-16T23:37:06.873Z,19.85
2022-08-16T23:39:36.007Z,19.64
2022-08-16T23:42:52.594Z,19.81
2022-08-16T23:45:04.948Z,19.73
2022-08-16T23:47:32.926Z,19.42
2022-08-16T23:50:04.037Z,19.36
2022-08-16T23:52:53.199Z,19.54
2022-08-16T23:55:20.745Z,19.01
2022-08-16T23:57:49.760Z,19.36
